Startpagina
METAR-TAF:

METAR-TAF

Vliegvelden :

Spokane, Washington, Verenigde Staten

breedte: 47-37-17N, lengte: 117-31-40W, hoogte: 723 m

Actueel weer

Dit bericht is 36 minuten geleden gemaakt, om 12:53 UTC
Wind 9 kt uit het zuidzuidoosten
Temperatuur 19°C
Vochtigheid 46%
Druk 1016 hPa
Zicht: 16.1 km
Weinig wolken op 10000 ft
Weinig wolken op 14000 ft
Weinig wolken op 20000 ft
Verspreide wolken op 25000 ft

METAR: KGEG 171253Z 16009KT 10SM FEW100 FEW140 FEW200 SCT250 19/07 A3001 RMK AO2 SLP142 FU FEW100 T01940072

Tijdstip: 06:29 (13:29 UTC)

Verwachting

Dit bericht is 1 uur en het 59 minuten geleden gemaakt, om 11:30 UTC
Verwachting geldig van 17 om 12 UTC tot 18 om 12 UTC
Wind 6 kt uit het zuidoosten
Zicht: 10 km
Weinig wolken op 15000 ft
Weinig wolken op 25000 ft
Van 17 om 1900 UTC
Wind 10 kt uit het zuidzuidwesten
Zicht: 10 km
Weinig wolken op 25000 ft

TAF: KGEG 171130Z 1712/1812 14006KT P6SM FEW150 FEW250 FM171900 20010KT P6SM FEW250

Waarnemingen en weersverwachtingen van meer dan 4000 vliegvelden (METAR en TAF).

De beschikbare stations zijn de gele en rode punten op de kaart.

Ga met uw muis naar het station om de naam te zien.

Klik dan om waarnemingen en weersverwachtingen te zien.

kaart wijzigen: klik op de groene knoppen met een zwart kruis om in te zoomen, op de groene knop met een streepje om uit te zoomen of op de groene pijlen voor aangrenzende kaarten.


METAR-TAF: